»·PEaware :: N5724J KSMX-1O3

N5724J :: KSMX-1O3

FLIGHT INFORMATION

Flight Status: Arrived
Operator: Privately registered:
United States
More flights under this callsign
Pilot: Anonymous 14019 (14019)
Aircraft: ECLIPSE 500
(EA50)
More flights by this aircraft type
Origin: KSMX Santa Maria Pub/Capt Hancock
United States
Destination: 1O3 Lodi
United States
More flights between these airports :: More routes between these airports
Route: PRB ECA
File this flight plan on PilotEdge
Remarks: twitch.tv / threegreengaming
Altitude:
(Current/Filed)
26,000ft
Speed:
(Current/Filed)
300kts
Departed: 17-Jun-17 01:14 PM
Arrived: 17-Jun-17 02:09 PM
Distance/Time
Traveled:
202nm/0:55
Distance/Time
To Go:
Arrived

Flight Plot

Page will automatically refresh every two minutes.

Flight plan parsing failed; only flown route is shown


Map Options




Map Legend


Flown Route
Filed Route
Departure Airport
Arrival Airport
Navaid (VOR, NDB)
Fix

Horizontal Profiles

Position Reports

Time Latitude Longitude Heading Altitude Ground
Speed
17-Jun-17 13:05 34.902113 -120.452967 225 264ft 0kts
17-Jun-17 13:06 34.902113 -120.452967 225 264ft 0kts
17-Jun-17 13:07 34.902113 -120.452967 225 264ft 0kts
17-Jun-17 13:08 34.902113 -120.452967 225 264ft 0kts
17-Jun-17 13:09 34.902113 -120.452967 225 264ft 0kts
17-Jun-17 13:10 34.902113 -120.452967 225 264ft 0kts
17-Jun-17 13:11 34.901568 -120.453249 180 264ft 9kts
17-Jun-17 13:12 34.898721 -120.450387 135 264ft 15kts
17-Jun-17 13:13 34.896138 -120.447295 137 264ft 12kts
17-Jun-17 13:14 34.894085 -120.445381 177 264ft 0kts
17-Jun-17 13:15 34.894033 -120.445379 180 264ft 0kts
17-Jun-17 13:16 34.894212 -120.447472 313 264ft 57kts
17-Jun-17 13:17 34.929729 -120.464685 32 1500ft 215kts
17-Jun-17 13:18 34.922400 -120.393233 113 4272ft 255kts
17-Jun-17 13:19 34.891132 -120.311025 113 4968ft 273kts
17-Jun-17 13:20 34.859365 -120.227198 113 4973ft 273kts
17-Jun-17 13:22 34.827715 -120.143652 112 4973ft 273kts
17-Jun-17 13:23 34.824310 -120.063357 32 7421ft 242kts
17-Jun-17 13:24 34.881577 -120.087175 337 7985ft 241kts
17-Jun-17 13:25 34.945870 -120.125629 333 8371ft 253kts
17-Jun-17 13:26 35.005042 -120.164506 332 10341ft 252kts
17-Jun-17 13:27 35.066896 -120.206432 332 12430ft 260kts
17-Jun-17 13:28 35.129194 -120.249113 331 14450ft 266kts
17-Jun-17 13:29 35.194406 -120.294029 331 16239ft 273kts
17-Jun-17 13:30 35.261024 -120.340061 331 17860ft 279kts
17-Jun-17 13:31 35.328718 -120.386833 329 19337ft 283kts
17-Jun-17 13:32 35.397563 -120.434747 330 20865ft 285kts
17-Jun-17 13:33 35.464085 -120.481308 333 22839ft 270kts
17-Jun-17 13:34 35.527227 -120.525192 333 24827ft 253kts
17-Jun-17 13:35 35.588079 -120.567631 333 25914ft 272kts
17-Jun-17 13:36 35.659070 -120.617132 333 25914ft 312kts
17-Jun-17 13:37 35.745050 -120.643509 350 25912ft 327kts
17-Jun-17 13:38 35.833346 -120.665752 350 25908ft 326kts
17-Jun-17 13:39 35.921998 -120.687696 350 25908ft 326kts
17-Jun-17 13:40 36.010651 -120.709588 350 25908ft 326kts
17-Jun-17 13:41 36.099229 -120.731491 350 25908ft 326kts
17-Jun-17 13:42 36.186222 -120.753050 350 25910ft 326kts
17-Jun-17 13:43 36.274733 -120.775027 350 25909ft 326kts
17-Jun-17 13:44 36.363504 -120.797112 350 25909ft 327kts
17-Jun-17 13:45 36.454118 -120.819643 350 24890ft 352kts
17-Jun-17 13:46 36.553531 -120.844517 350 22872ft 378kts
17-Jun-17 13:47 36.657459 -120.870415 348 20849ft 383kts
17-Jun-17 13:48 36.758948 -120.895965 348 19078ft 366kts
17-Jun-17 13:49 36.855011 -120.920289 349 16915ft 348kts
17-Jun-17 13:50 36.947989 -120.943708 349 14798ft 339kts
17-Jun-17 13:51 37.038933 -120.966716 349 13018ft 330kts
17-Jun-17 13:52 37.125995 -120.988796 349 11809ft 324kts
17-Jun-17 13:53 37.213154 -121.010958 349 10706ft 318kts
17-Jun-17 13:54 37.291386 -121.030927 349 9716ft 274kts
17-Jun-17 13:55 37.366199 -121.050031 349 8664ft 273kts
17-Jun-17 13:56 37.439438 -121.068768 348 7344ft 266kts
17-Jun-17 13:57 37.510768 -121.087051 348 6026ft 260kts
17-Jun-17 13:58 37.580495 -121.104979 348 4942ft 255kts
17-Jun-17 13:59 37.649974 -121.122868 348 4927ft 255kts
17-Jun-17 14:00 37.719390 -121.140784 348 4927ft 255kts
17-Jun-17 14:01 37.788378 -121.158610 348 3869ft 251kts
17-Jun-17 14:02 37.855963 -121.176230 348 2982ft 248kts
17-Jun-17 14:03 37.922867 -121.193778 346 2148ft 236kts
17-Jun-17 14:04 37.980332 -121.209142 348 1905ft 188kts
17-Jun-17 14:05 38.031751 -121.222752 348 1897ft 188kts
17-Jun-17 14:06 38.083191 -121.236398 348 1902ft 194kts
17-Jun-17 14:07 38.133690 -121.249822 348 1902ft 188kts
17-Jun-17 14:08 38.185413 -121.263336 348 1910ft 189kts
17-Jun-17 14:09 38.225224 -121.263739 58 1433ft 127kts
17-Jun-17 14:10 38.220127 -121.219792 143 1187ft 130kts
17-Jun-17 14:11 38.201802 -121.239324 280 428ft 107kts
17-Jun-17 14:12 38.203008 -121.272066 273 61ft 26kts
17-Jun-17 14:13 38.203253 -121.272838 91 61ft 0kts

Navigation Log

Ident Type
Flight plan parsing failed, navigation log unavailable